Latest Weather Observations for Armament Jetty

IDW60801

Issued at 5:43 pm WST Sunday 15 September 2019 (issued every 10 minutes, with the page automatically refreshed every 10 minutes)

About weather observations | Map of weather stations | Latest weather observations for WA | Other Formats
Station Details ID: 009254 Name: ARMAMENT JETTY Lat: -32.18 Lon: 115.68 Height: 9.0 m
Data from the previous 72 hours. | See also: Recent months for locations in Western Australia
Date/Time
WST
Temp
°C
App
Temp
°C
Dew
Point
°C
Rel
Hum
%
Delta-T
°C
Wind Press
QNH
hPa
Press
MSL
hPa
Rain since
9am
mm
Dir  Spd
km/h
Gust
km/h
Spd
kts
Gust
kts
15/05:30pm - - - - - S 32 39 17 21 - - -
15/05:00pm - - - - - S 33 39 18 21 - - -
15/04:30pm - - - - - S 32 39 17 21 - - -
15/04:00pm - - - - - S 33 39 18 21 - - -
15/03:30pm - - - - - S 37 44 20 24 - - -
15/03:00pm - - - - - S 35 41 19 22 - - -
15/02:30pm - - - - - S 33 41 18 22 - - -
15/02:00pm - - - - - SSW 32 39 17 21 - - -
15/01:30pm - - - - - S 32 37 17 20 - - -
15/01:00pm - - - - - S 28 32 15 17 - - -
15/12:30pm - - - - - S 26 32 14 17 - - -
15/12:00pm - - - - - S 26 30 14 16 - - -
15/11:30am - - - - - S 24 30 13 16 - - -
15/11:00am - - - - - S 22 28 12 15 - - -
15/10:30am - - - - - S 19 24 10 13 - - -
15/10:00am - - - - - SE 17 20 9 11 - - -
15/09:30am - - - - - SE 17 19 9 10 - - -
15/09:00am - - - - - SE 20 24 11 13 - - -
15/08:30am - - - - - ESE 22 28 12 15 - - -
15/08:00am - - - - - SE 24 28 13 15 - - -
15/07:30am - - - - - SE 24 28 13 15 - - -
15/07:00am - - - - - SE 26 28 14 15 - - -
15/06:30am - - - - - SSE 28 32 15 17 - - -
15/06:00am - - - - - SSE 26 30 14 16 - - -
15/05:30am - - - - - SE 28 32 15 17 - - -
15/05:00am - - - - - SE 28 32 15 17 - - -
15/04:30am - - - - - SE 28 32 15 17 - - -
15/04:00am - - - - - SSE 30 33 16 18 - - -
15/03:30am - - - - - SE 32 37 17 20 - - -
15/03:00am - - - - - SSE 30 35 16 19 - - -
15/02:30am - - - - - SSE 32 39 17 21 - - -
15/02:00am - - - - - SSE 32 39 17 21 - - -
15/01:30am - - - - - SSE 32 37 17 20 - - -
15/01:00am - - - - - SSE 33 39 18 21 - - -
15/12:30am - - - - - SSE 28 37 15 20 - - -
15/12:00am - - - - - SSE 30 35 16 19 - - -
 
Date/Time
WST
Temp
°C
App
Temp
°C
Dew
Point
°C
Rel
Hum
%
Delta-T
°C
Wind Press
QNH
hPa
Press
MSL
hPa
Rain since
9am
mm
Dir  Spd
km/h
Gust
km/h
Spd
kts
Gust
kts
14/11:30pm - - - - - SSE 28 35 15 19 - - -
14/11:00pm - - - - - S 19 24 10 13 - - -
14/10:30pm - - - - - SSE 28 32 15 17 - - -
14/10:00pm - - - - - SSE 28 35 15 19 - - -
14/09:30pm - - - - - S 26 32 14 17 - - -
14/09:00pm - - - - - S 32 39 17 21 - - -
14/08:30pm - - - - - S 26 32 14 17 - - -
14/08:00pm - - - - - SSE 24 32 13 17 - - -
14/07:30pm - - - - - SSE 24 32 13 17 - - -
14/07:00pm - - - - - S 26 30 14 16 - - -
14/06:30pm - - - - - S 20 22 11 12 - - -
14/06:00pm - - - - - S 20 26 11 14 - - -
14/05:30pm - - - - - S 19 24 10 13 - - -
14/05:00pm - - - - - S 17 19 9 10 - - -
14/04:30pm - - - - - S 19 24 10 13 - - -
14/04:00pm - - - - - S 26 30 14 16 - - -
14/03:30pm - - - - - S 19 26 10 14 - - -
14/03:00pm - - - - - S 20 26 11 14 - - -
14/02:30pm - - - - - S 19 22 10 12 - - -
14/02:00pm - - - - - S 24 30 13 16 - - -
14/01:30pm - - - - - S 28 32 15 17 - - -
14/01:00pm - - - - - SSW 19 26 10 14 - - -
14/12:30pm - - - - - WSW 15 20 8 11 - - -
14/12:00pm - - - - - SW 13 17 7 9 - - -
14/11:30am - - - - - N 11 13 6 7 - - -
14/11:00am - - - - - WSW 9 13 5 7 - - -
14/10:30am - - - - - NNE 2 7 1 4 - - -
14/10:00am - - - - - N 11 13 6 7 - - -
14/09:30am - - - - - NE 6 9 3 5 - - -
14/09:00am - - - - - CALM 0 0 0 0 - - -
14/08:30am - - - - - CALM 0 0 0 0 - - -
14/08:00am - - - - - CALM 0 0 0 0 - - -
14/07:30am - - - - - CALM 0 0 0 0 - - -
14/07:00am - - - - - NNE 6 9 3 5 - - -
14/06:30am - - - - - NNE 15 17 8 9 - - -
14/06:00am - - - - - NNE 20 24 11 13 - - -
14/05:30am - - - - - NNE 11 15 6 8 - - -
14/05:00am - - - - - CALM 0 0 0 0 - - -
14/04:30am - - - - - CALM 0 0 0 0 - - -
14/04:00am - - - - - CALM 0 0 0 0 - - -
14/03:30am - - - - - CALM 0 6 0 3 - - -
14/03:00am - - - - - CALM 0 6 0 3 - - -
14/02:30am - - - - - S 7 7 4 4 - - -
14/02:00am - - - - - CALM 0 0 0 0 - - -
14/01:30am - - - - - CALM 0 0 0 0 - - -
14/01:00am - - - - - SE 2 7 1 4 - - -
14/12:30am - - - - - CALM 0 0 0 0 - - -
14/12:00am - - - - - CALM 0 0 0 0 - - -
 
Date/Time
WST
Temp
°C
App
Temp
°C
Dew
Point
°C
Rel
Hum
%
Delta-T
°C
Wind Press
QNH
hPa
Press
MSL
hPa
Rain since
9am
mm
Dir  Spd
km/h
Gust
km/h
Spd
kts
Gust
kts
13/11:30pm - - - - - CALM 0 0 0 0 - - -
13/11:00pm - - - - - CALM 0 0 0 0 - - -
13/10:30pm - - - - - ESE 7 7 4 4 - - -
13/10:00pm - - - - - S 9 11 5 6 - - -
13/09:30pm - - - - - SSE 9 11 5 6 - - -
13/09:00pm - - - - - SE 9 11 5 6 - - -
13/08:30pm - - - - - SSE 9 9 5 5 - - -
13/08:00pm - - - - - S 7 9 4 5 - - -
13/07:30pm - - - - - SSW 11 13 6 7 - - -
13/07:00pm - - - - - SSW 13 15 7 8 - - -
13/06:30pm - - - - - S 11 11 6 6 - - -
13/06:00pm - - - - - S 13 13 7 7 - - -
13/05:30pm - - - - - S 11 13 6 7 - - -
13/05:00pm - - - - - SSW 13 17 7 9 - - -
13/04:30pm - - - - - SW 13 15 7 8 - - -
13/04:00pm - - - - - S 11 15 6 8 - - -
13/03:30pm - - - - - S 11 13 6 7 - - -
13/03:00pm - - - - - SSW 15 19 8 10 - - -
13/02:30pm - - - - - S 17 20 9 11 - - -
13/02:00pm - - - - - SSW 19 26 10 14 - - -
13/01:30pm - - - - - SSW 15 20 8 11 - - -
13/01:00pm - - - - - SW 15 19 8 10 - - -
13/12:30pm - - - - - WSW 11 15 6 8 - - -
13/12:00pm - - - - - NW 9 15 5 8 - - -
13/11:30am - - - - - NNW 4 9 2 5 - - -
13/11:00am - - - - - CALM 0 0 0 0 - - -
13/10:30am - - - - - CALM 0 0 0 0 - - -
13/10:00am - - - - - CALM 0 0 0 0 - - -
13/09:30am - - - - - ESE 7 7 4 4 - - -
13/09:00am - - - - - ESE 7 9 4 5 - - -
13/08:30am - - - - - CALM 0 0 0 0 - - -
13/08:00am - - - - - ENE 7 9 4 5 - - -
13/07:30am - - - - - E 9 11 5 6 - - -
13/07:00am - - - - - ENE 7 9 4 5 - - -
13/06:30am - - - - - ENE 7 7 4 4 - - -
13/06:00am - - - - - NE 7 9 4 5 - - -
13/05:30am - - - - - CALM 0 0 0 0 - - -
13/05:00am - - - - - CALM 0 0 0 0 - - -
13/04:30am - - - - - CALM 0 0 0 0 - - -
13/04:00am - - - - - CALM 0 0 0 0 - - -
13/03:30am - - - - - N 7 9 4 5 - - -
13/03:00am - - - - - NNE 7 9 4 5 - - -
13/02:30am - - - - - NNE 7 9 4 5 - - -
13/02:00am - - - - - NNE 7 9 4 5 - - -
13/01:30am - - - - - NNE 11 13 6 7 - - -
13/01:00am - - - - - NNE 7 9 4 5 - - -
13/12:30am - - - - - NNE 9 11 5 6 - - -
13/12:00am - - - - - NNE 11 13 6 7 - - -
 
Date/Time
WST
Temp
°C
App
Temp
°C
Dew
Point
°C
Rel
Hum
%
Delta-T
°C
Wind Press
QNH
hPa
Press
MSL
hPa
Rain since
9am
mm
Dir  Spd
km/h
Gust
km/h
Spd
kts
Gust
kts
12/11:30pm - - - - - N 11 15 6 8 - - -
12/11:00pm - - - - - N 7 9 4 5 - - -
12/10:30pm - - - - - CALM 0 0 0 0 - - -
12/10:00pm - - - - - CALM 0 0 0 0 - - -
12/09:30pm - - - - - CALM 0 0 0 0 - - -
12/09:00pm - - - - - CALM 0 0 0 0 - - -
12/08:30pm - - - - - SSE 9 11 5 6 - - -
12/08:00pm - - - - - S 7 9 4 5 - - -
12/07:30pm - - - - - CALM 0 0 0 0 - - -
12/07:00pm - - - - - CALM 0 0 0 0 - - -
12/06:30pm - - - - - CALM 0 2 0 1 - - -
12/06:00pm - - - - - N 7 9 4 5 - - -

Other formats

Comma delimited format used in spreadsheet applications
http://www.bom.gov.au/fwo/IDW60801/IDW60801.99254.axf

JavaScript Object Notation format (JSON) in row-major order
http://www.bom.gov.au/fwo/IDW60801/IDW60801.99254.json

Data quality

Most of these data are generated automatically and are frequently updated. Quality checks on data are not normally performed. It is possible for incorrect values to appear. Refer to information at About Latest Weather Observations and please check the disclaimer before using these data.